createdAt,value
2022-11-16T00:02:11.146Z,99842.00
2022-11-16T00:04:38.079Z,99841.00
2022-11-16T00:07:04.930Z,99829.00
2022-11-16T00:09:32.597Z,99830.00
2022-11-16T00:12:03.186Z,99829.00
2022-11-16T00:14:32.132Z,99830.00
2022-11-16T00:16:59.020Z,99829.00
2022-11-16T00:19:27.376Z,99834.00
2022-11-16T00:21:54.132Z,99832.00
2022-11-16T00:24:22.082Z,99831.00
2022-11-16T00:26:49.887Z,99823.00
2022-11-16T00:29:19.544Z,99825.00
2022-11-16T00:31:46.123Z,99824.00
2022-11-16T00:34:13.464Z,99835.00
2022-11-16T00:36:40.039Z,99835.00
2022-11-16T00:39:06.714Z,99830.00
2022-11-16T00:41:33.249Z,99829.00
2022-11-16T00:43:59.815Z,99820.00
2022-11-16T00:46:26.336Z,99820.00
2022-11-16T00:48:53.077Z,99818.00
2022-11-16T00:51:19.581Z,99807.00
2022-11-16T00:53:46.268Z,99804.00
2022-11-16T00:56:12.884Z,99802.00
2022-11-16T00:58:43.221Z,99802.00
2022-11-16T01:01:11.794Z,99786.00
2022-11-16T01:03:38.962Z,99795.00
2022-11-16T01:06:08.228Z,99790.00
2022-11-16T01:08:36.658Z,99788.00
2022-11-16T01:11:23.111Z,99782.00
2022-11-16T01:13:49.879Z,99781.00
2022-11-16T01:16:17.881Z,99778.00
2022-11-16T01:18:47.661Z,99782.00
2022-11-16T01:21:14.197Z,99786.00
2022-11-16T01:23:40.773Z,99780.00
2022-11-16T01:26:07.301Z,99789.00
2022-11-16T01:28:36.399Z,99787.00
2022-11-16T01:31:03.691Z,99791.00
2022-11-16T01:33:33.724Z,99793.00
2022-11-16T01:36:00.482Z,99788.00
2022-11-16T01:38:29.807Z,99795.00
2022-11-16T01:40:57.119Z,99795.00
2022-11-16T01:43:27.032Z,99796.00
2022-11-16T01:46:00.058Z,99792.00
2022-11-16T01:48:29.473Z,99797.00
2022-11-16T01:50:57.547Z,99797.00
2022-11-16T01:53:24.703Z,99790.00
2022-11-16T01:55:55.573Z,99795.00
2022-11-16T01:58:30.017Z,99791.00
2022-11-16T02:01:03.440Z,99789.00
2022-11-16T02:03:41.189Z,99780.00
2022-11-16T02:06:14.302Z,99778.00
2022-11-16T02:09:15.542Z,99783.00
2022-11-16T02:12:03.064Z,99774.00
2022-11-16T02:14:29.634Z,99771.00
2022-11-16T02:17:32.296Z,99764.00
2022-11-16T02:20:08.288Z,99768.00
2022-11-16T02:23:03.062Z,99761.00
2022-11-16T02:25:57.642Z,99764.00
2022-11-16T02:28:37.760Z,99757.00
2022-11-16T02:31:06.437Z,99773.00
2022-11-16T02:33:38.300Z,99760.00
2022-11-16T02:36:07.709Z,99755.00
2022-11-16T02:38:38.965Z,99757.00
2022-11-16T02:41:09.150Z,99748.00
2022-11-16T02:43:45.452Z,99741.00
2022-11-16T02:46:28.943Z,99743.00
2022-11-16T02:48:58.440Z,99723.00
2022-11-16T02:51:27.401Z,99726.00
2022-11-16T02:54:12.661Z,99719.00
2022-11-16T02:56:57.838Z,99722.00
2022-11-16T02:59:33.192Z,99712.00
2022-11-16T03:02:16.490Z,99707.00
2022-11-16T03:04:49.954Z,99709.00
2022-11-16T03:07:20.553Z,99724.00
2022-11-16T03:09:48.970Z,99719.00
2022-11-16T03:12:21.275Z,99712.00
2022-11-16T03:14:58.704Z,99714.00
2022-11-16T03:17:38.567Z,99711.00
2022-11-16T03:20:26.907Z,99712.00
2022-11-16T03:23:02.236Z,99711.00
2022-11-16T03:25:36.523Z,99711.00
2022-11-16T03:28:36.635Z,99707.00
2022-11-16T03:31:29.979Z,99708.00
2022-11-16T03:34:00.370Z,99693.00
2022-11-16T03:36:33.897Z,99690.00
2022-11-16T03:39:11.599Z,99703.00
2022-11-16T03:41:41.841Z,99701.00
2022-11-16T03:44:10.877Z,99705.00
2022-11-16T03:46:39.744Z,99708.00
2022-11-16T03:49:06.327Z,99700.00
2022-11-16T03:51:36.019Z,99709.00
2022-11-16T03:54:03.700Z,99708.00
2022-11-16T03:56:31.266Z,99711.00
2022-11-16T03:58:57.920Z,99708.00
2022-11-16T04:01:24.490Z,99696.00
2022-11-16T04:03:51.097Z,99700.00
2022-11-16T04:06:38.009Z,99696.00
2022-11-16T04:09:23.695Z,99689.00
2022-11-16T04:12:09.642Z,99685.00
2022-11-16T04:14:56.915Z,99672.00
2022-11-16T04:17:44.822Z,99674.00
2022-11-16T04:20:32.705Z,99678.00
2022-11-16T04:23:22.807Z,99678.00
2022-11-16T04:25:52.065Z,99665.00
2022-11-16T04:28:25.130Z,99680.00
2022-11-16T04:31:17.088Z,99672.00
2022-11-16T04:34:15.747Z,99678.00
2022-11-16T04:37:06.417Z,99674.00
2022-11-16T04:39:33.031Z,99670.00
2022-11-16T04:42:14.680Z,99661.00
2022-11-16T04:45:01.597Z,99676.00
2022-11-16T04:47:34.313Z,99664.00
2022-11-16T04:50:02.121Z,99664.00
2022-11-16T04:52:28.904Z,99659.00
2022-11-16T04:54:56.043Z,99652.00
2022-11-16T04:57:23.229Z,99653.00
2022-11-16T04:59:50.356Z,99652.00
2022-11-16T05:02:17.451Z,99648.00
2022-11-16T05:04:49.393Z,99649.00
2022-11-16T05:07:17.397Z,99640.00
2022-11-16T05:09:47.339Z,99647.00
2022-11-16T05:12:19.228Z,99648.00
2022-11-16T05:14:47.448Z,99647.00
2022-11-16T05:17:16.618Z,99656.00
2022-11-16T05:20:01.838Z,99653.00
2022-11-16T05:22:33.020Z,99648.00
2022-11-16T05:25:01.401Z,99647.00
2022-11-16T05:27:29.259Z,99651.00
2022-11-16T05:29:55.865Z,99647.00
2022-11-16T05:32:24.548Z,99653.00
2022-11-16T05:34:53.475Z,99650.00
2022-11-16T05:37:21.079Z,99646.00
2022-11-16T05:39:48.453Z,99658.00
2022-11-16T05:42:16.352Z,99659.00
2022-11-16T05:44:43.363Z,99649.00
2022-11-16T05:47:10.162Z,99658.00
2022-11-16T05:49:37.917Z,99667.00
2022-11-16T05:52:04.650Z,99674.00
2022-11-16T05:54:31.408Z,99672.00
2022-11-16T05:56:58.092Z,99676.00
2022-11-16T05:59:24.783Z,99672.00
2022-11-16T06:01:54.469Z,99666.00
2022-11-16T06:04:24.132Z,99669.00
2022-11-16T06:06:50.881Z,99675.00
2022-11-16T06:09:18.583Z,99675.00
2022-11-16T06:11:46.115Z,99681.00
2022-11-16T06:14:12.682Z,99678.00
2022-11-16T06:16:39.463Z,99671.00
2022-11-16T06:19:08.750Z,99664.00
2022-11-16T06:21:36.147Z,99680.00
2022-11-16T06:24:09.286Z,99674.00
2022-11-16T06:26:37.126Z,99692.00
2022-11-16T06:29:04.466Z,99687.00
2022-11-16T06:31:32.926Z,99696.00
2022-11-16T06:34:01.572Z,99698.00
2022-11-16T06:36:29.360Z,99695.00
2022-11-16T06:38:59.868Z,99689.00
2022-11-16T06:41:28.029Z,99694.00
2022-11-16T06:43:55.173Z,99695.00
2022-11-16T06:46:26.136Z,99685.00
2022-11-16T06:48:53.390Z,99680.00
2022-11-16T06:51:20.018Z,99690.00
2022-11-16T06:53:47.523Z,99686.00
2022-11-16T06:56:15.765Z,99681.00
2022-11-16T06:58:47.622Z,99686.00
2022-11-16T07:01:15.321Z,99691.00
2022-11-16T07:03:44.227Z,99700.00
2022-11-16T07:06:13.173Z,99690.00
2022-11-16T07:08:42.400Z,99702.00
2022-11-16T07:11:11.179Z,99689.00
2022-11-16T07:13:38.911Z,99697.00
2022-11-16T07:16:08.379Z,99698.00
2022-11-16T07:18:36.863Z,99696.00
2022-11-16T07:21:12.440Z,99703.00
2022-11-16T07:23:39.391Z,99713.00
2022-11-16T07:26:09.273Z,99713.00
2022-11-16T07:28:47.771Z,99703.00
2022-11-16T07:31:18.470Z,99712.00
2022-11-16T07:33:45.973Z,99718.00
2022-11-16T07:36:15.698Z,99724.00
2022-11-16T07:38:42.548Z,99707.00
2022-11-16T07:41:12.556Z,99713.00
2022-11-16T07:43:52.832Z,99718.00
2022-11-16T07:49:18.488Z,99710.00
2022-11-16T07:51:54.807Z,99703.00
2022-11-16T07:54:40.510Z,99715.00
2022-11-16T07:57:07.953Z,99710.00
2022-11-16T07:59:34.847Z,99703.00
2022-11-16T08:02:03.331Z,99711.00
2022-11-16T08:04:30.590Z,99717.00
2022-11-16T08:06:58.568Z,99717.00
2022-11-16T08:09:27.528Z,99719.00
2022-11-16T08:11:54.864Z,99715.00
2022-11-16T08:14:22.459Z,99718.00
2022-11-16T08:16:50.364Z,99716.00
2022-11-16T08:19:17.630Z,99716.00
2022-11-16T08:21:45.678Z,99712.00
2022-11-16T08:24:13.733Z,99713.00
2022-11-16T08:26:42.392Z,99708.00
2022-11-16T08:29:12.060Z,99723.00
2022-11-16T08:31:44.059Z,99718.00
2022-11-16T08:34:13.523Z,99714.00
2022-11-16T08:36:43.963Z,99712.00
2022-11-16T08:39:11.282Z,99716.00
2022-11-16T08:41:37.985Z,99714.00
2022-11-16T08:44:07.585Z,99707.00
2022-11-16T08:46:37.587Z,99704.00
2022-11-16T08:49:20.285Z,99701.00
2022-11-16T08:51:47.197Z,99697.00
2022-11-16T08:54:13.801Z,99695.00
2022-11-16T08:56:42.041Z,99692.00
2022-11-16T08:59:09.359Z,99691.00
2022-11-16T09:01:40.136Z,99687.00
2022-11-16T09:04:06.713Z,99681.00
2022-11-16T09:06:33.335Z,99688.00
2022-11-16T09:09:00.035Z,99690.00
2022-11-16T09:11:26.766Z,99683.00
2022-11-16T09:13:54.599Z,99687.00
2022-11-16T09:16:21.622Z,99670.00
2022-11-16T09:18:49.793Z,99677.00
2022-11-16T09:21:21.040Z,99670.00
2022-11-16T09:23:48.775Z,99673.00
2022-11-16T09:26:15.611Z,99682.00
2022-11-16T09:28:42.263Z,99671.00
2022-11-16T09:31:10.106Z,99673.00
2022-11-16T09:33:37.417Z,99671.00
2022-11-16T09:36:09.319Z,99671.00
2022-11-16T09:39:05.548Z,99674.00
2022-11-16T09:42:04.678Z,99675.00
2022-11-16T09:44:37.820Z,99661.00
2022-11-16T09:47:09.446Z,99648.00
2022-11-16T09:49:39.676Z,99652.00
2022-11-16T09:52:11.181Z,99664.00
2022-11-16T09:54:40.495Z,99651.00
2022-11-16T09:57:12.609Z,99655.00
2022-11-16T09:59:50.739Z,99645.00
2022-11-16T10:02:56.950Z,99650.00
2022-11-16T10:05:36.821Z,99644.00
2022-11-16T10:08:26.280Z,99644.00
2022-11-16T10:11:19.201Z,99653.00
2022-11-16T10:14:04.188Z,99643.00
2022-11-16T10:17:08.404Z,99641.00
2022-11-16T10:19:55.272Z,99627.00
2022-11-16T10:22:37.110Z,99642.00
2022-11-16T10:25:10.769Z,99631.00
2022-11-16T10:27:50.593Z,99639.00
2022-11-16T10:30:21.856Z,99638.00
2022-11-16T10:33:21.122Z,99634.00
2022-11-16T10:35:54.544Z,99639.00
2022-11-16T10:38:24.026Z,99630.00
2022-11-16T10:40:55.272Z,99626.00
2022-11-16T10:43:27.310Z,99615.00
2022-11-16T10:46:15.586Z,99615.00
2022-11-16T10:48:57.625Z,99615.00
2022-11-16T10:51:24.249Z,99609.00
2022-11-16T10:53:52.970Z,99599.00
2022-11-16T10:56:28.670Z,99607.00
2022-11-16T10:58:57.829Z,99604.00
2022-11-16T11:01:35.918Z,99612.00
2022-11-16T11:04:20.796Z,99608.00
2022-11-16T11:06:51.373Z,99598.00
2022-11-16T11:09:24.098Z,99606.00
2022-11-16T11:12:19.431Z,99599.00
2022-11-16T11:15:25.600Z,99604.00
2022-11-16T11:18:26.520Z,99604.00
2022-11-16T11:21:06.508Z,99601.00
2022-11-16T11:23:43.494Z,99609.00
2022-11-16T11:26:36.198Z,99611.00
2022-11-16T11:29:16.579Z,99613.00
2022-11-16T11:31:46.283Z,99606.00
2022-11-16T11:34:18.225Z,99613.00
2022-11-16T11:37:00.109Z,99605.00
2022-11-16T11:39:32.833Z,99606.00
2022-11-16T11:42:05.625Z,99608.00
2022-11-16T11:44:37.114Z,99608.00
2022-11-16T11:50:55.636Z,99624.00
2022-11-16T11:53:34.569Z,99608.00
2022-11-16T11:56:01.519Z,99609.00
2022-11-16T11:58:31.420Z,99608.00
2022-11-16T12:01:25.582Z,99603.00
2022-11-16T12:04:07.645Z,99610.00
2022-11-16T12:07:05.915Z,99605.00
2022-11-16T12:10:09.830Z,99608.00
2022-11-16T12:12:48.928Z,99607.00
2022-11-16T12:15:24.314Z,99602.00
2022-11-16T12:18:02.918Z,99609.00
2022-11-16T12:21:00.534Z,99614.00
2022-11-16T12:23:30.168Z,99609.00
2022-11-16T12:25:59.695Z,99603.00
2022-11-16T12:28:37.632Z,99601.00
2022-11-16T12:31:20.287Z,99616.00
2022-11-16T12:34:11.469Z,99624.00
2022-11-16T12:37:20.194Z,99614.00
2022-11-16T12:40:10.325Z,99599.00
2022-11-16T12:42:54.955Z,99598.00
2022-11-16T12:45:32.895Z,99607.00
2022-11-16T12:48:08.472Z,99613.00
2022-11-16T12:50:58.144Z,99599.00
2022-11-16T12:53:58.061Z,99605.00
2022-11-16T12:56:37.724Z,99604.00
2022-11-16T12:59:28.687Z,99606.00
2022-11-16T13:02:16.279Z,99604.00
2022-11-16T13:04:46.255Z,99604.00
2022-11-16T13:07:16.077Z,99600.00
2022-11-16T13:09:49.259Z,99603.00
2022-11-16T13:12:17.400Z,99606.00
2022-11-16T13:14:48.154Z,99595.00
2022-11-16T13:17:21.486Z,99601.00
2022-11-16T13:20:02.157Z,99596.00
2022-11-16T13:22:29.355Z,99594.00
2022-11-16T13:25:15.053Z,99589.00
2022-11-16T13:27:49.396Z,99595.00
2022-11-16T13:30:29.388Z,99586.00
2022-11-16T13:33:26.962Z,99588.00
2022-11-16T13:35:53.601Z,99583.00
2022-11-16T13:38:54.723Z,99583.00
2022-11-16T13:41:31.529Z,99578.00
2022-11-16T13:43:58.613Z,99581.00
2022-11-16T13:49:41.447Z,99582.00
2022-11-16T13:52:35.660Z,99576.00
2022-11-16T13:54:59.076Z,99574.00
2022-11-16T13:57:27.883Z,99582.00
2022-11-16T14:00:00.520Z,99575.00
2022-11-16T14:02:27.030Z,99579.00
2022-11-16T14:05:13.285Z,99579.00
2022-11-16T14:07:43.201Z,99576.00
2022-11-16T14:10:11.225Z,99575.00
2022-11-16T14:12:38.133Z,99578.00
2022-11-16T14:15:22.071Z,99576.00
2022-11-16T14:18:11.917Z,99577.00
2022-11-16T14:20:59.252Z,99576.00
2022-11-16T14:23:56.955Z,99582.00
2022-11-16T14:26:44.997Z,99572.00
2022-11-16T14:29:15.405Z,99569.00
2022-11-16T14:31:49.759Z,99571.00
2022-11-16T14:34:19.740Z,99566.00
2022-11-16T14:36:47.220Z,99572.00
2022-11-16T14:39:29.161Z,99580.00
2022-11-16T14:41:59.446Z,99583.00
2022-11-16T14:44:28.462Z,99578.00
2022-11-16T14:46:56.134Z,99569.00
2022-11-16T14:49:25.952Z,99575.00
2022-11-16T14:51:57.310Z,99570.00
2022-11-16T14:54:23.804Z,99572.00
2022-11-16T14:57:00.348Z,99564.00
2022-11-16T14:59:28.147Z,99564.00
2022-11-16T15:01:55.169Z,99562.00
2022-11-16T15:04:24.432Z,99571.00
2022-11-16T15:07:01.587Z,99565.00
2022-11-16T15:09:30.943Z,99564.00
2022-11-16T15:12:17.261Z,99569.00
2022-11-16T15:14:52.713Z,99563.00
2022-11-16T15:17:22.137Z,99565.00
2022-11-16T15:20:00.373Z,99572.00
2022-11-16T15:22:29.507Z,99561.00
2022-11-16T15:25:00.926Z,99570.00
2022-11-16T15:27:38.792Z,99571.00
2022-11-16T15:30:16.075Z,99564.00
2022-11-16T15:32:43.895Z,99572.00
2022-11-16T15:35:22.988Z,99573.00
2022-11-16T15:38:20.313Z,99567.00
2022-11-16T15:40:58.479Z,99572.00
2022-11-16T15:43:31.118Z,99551.00
2022-11-16T15:45:58.521Z,99560.00
2022-11-16T15:48:26.726Z,99547.00
2022-11-16T15:51:17.756Z,99553.00
2022-11-16T15:53:48.895Z,99561.00
2022-11-16T15:56:16.880Z,99555.00
2022-11-16T15:58:43.572Z,99552.00
2022-11-16T16:01:12.224Z,99546.00
2022-11-16T16:03:39.302Z,99554.00
2022-11-16T16:06:07.673Z,99556.00
2022-11-16T16:08:36.650Z,99554.00
2022-11-16T16:11:19.371Z,99543.00
2022-11-16T16:14:01.106Z,99563.00
2022-11-16T16:16:37.992Z,99566.00
2022-11-16T16:19:10.059Z,99550.00
2022-11-16T16:21:45.016Z,99548.00
2022-11-16T16:24:37.382Z,99549.00
2022-11-16T16:27:13.037Z,99546.00
2022-11-16T16:29:39.892Z,99552.00
2022-11-16T16:32:09.861Z,99545.00
2022-11-16T16:34:39.256Z,99552.00
2022-11-16T16:37:10.806Z,99555.00
2022-11-16T16:39:38.609Z,99555.00
2022-11-16T16:42:10.585Z,99561.00
2022-11-16T16:44:37.139Z,99555.00
2022-11-16T16:47:03.790Z,99554.00
2022-11-16T16:49:30.300Z,99551.00
2022-11-16T16:51:56.925Z,99560.00
2022-11-16T16:54:23.836Z,99560.00
2022-11-16T16:56:50.442Z,99564.00
2022-11-16T16:59:17.031Z,99547.00
2022-11-16T17:01:43.567Z,99542.00
2022-11-16T17:04:10.108Z,99548.00
2022-11-16T17:06:36.702Z,99551.00
2022-11-16T17:09:03.635Z,99553.00
2022-11-16T17:11:30.155Z,99554.00
2022-11-16T17:13:56.752Z,99551.00
2022-11-16T17:16:23.341Z,99542.00
2022-11-16T17:18:54.875Z,99549.00
2022-11-16T17:21:21.802Z,99546.00
2022-11-16T17:23:48.428Z,99548.00
2022-11-16T17:26:14.922Z,99532.00
2022-11-16T17:28:41.891Z,99557.00
2022-11-16T17:31:10.185Z,99561.00
2022-11-16T17:33:38.132Z,99551.00
2022-11-16T17:36:06.097Z,99547.00
2022-11-16T17:38:33.535Z,99551.00
2022-11-16T17:41:21.735Z,99543.00
2022-11-16T17:43:51.540Z,99560.00
2022-11-16T17:46:19.099Z,99566.00
2022-11-16T17:48:47.053Z,99574.00
2022-11-16T17:51:16.079Z,99572.00
2022-11-16T17:53:45.404Z,99577.00
2022-11-16T17:56:14.079Z,99578.00
2022-11-16T17:58:40.978Z,99569.00
2022-11-16T18:01:07.795Z,99557.00
2022-11-16T18:03:38.348Z,99567.00
2022-11-16T18:06:07.493Z,99573.00
2022-11-16T18:08:34.693Z,99568.00
2022-11-16T18:11:09.738Z,99573.00
2022-11-16T18:13:36.535Z,99572.00
2022-11-16T18:16:08.967Z,99565.00
2022-11-16T18:18:36.163Z,99567.00
2022-11-16T18:21:02.678Z,99562.00
2022-11-16T18:23:29.222Z,99562.00
2022-11-16T18:25:55.833Z,99560.00
2022-11-16T18:28:22.921Z,99572.00
2022-11-16T18:30:49.622Z,99574.00
2022-11-16T18:33:16.589Z,99575.00
2022-11-16T18:35:43.678Z,99569.00
2022-11-16T18:38:13.160Z,99576.00
2022-11-16T18:40:40.283Z,99568.00
2022-11-16T18:43:12.324Z,99569.00
2022-11-16T18:45:38.886Z,99575.00
2022-11-16T18:48:05.440Z,99580.00
2022-11-16T18:50:32.013Z,99577.00
2022-11-16T18:52:58.526Z,99574.00
2022-11-16T18:55:25.017Z,99554.00
2022-11-16T18:57:51.565Z,99567.00
2022-11-16T19:00:19.401Z,99555.00
2022-11-16T19:02:45.946Z,99554.00
2022-11-16T19:05:12.568Z,99566.00
2022-11-16T19:07:39.216Z,99570.00
2022-11-16T19:10:06.321Z,99565.00
2022-11-16T19:12:32.852Z,99561.00
2022-11-16T19:14:59.513Z,99567.00
2022-11-16T19:17:26.970Z,99557.00
2022-11-16T19:19:53.485Z,99555.00
2022-11-16T19:22:20.466Z,99563.00
2022-11-16T19:24:46.990Z,99571.00
2022-11-16T19:27:13.562Z,99564.00
2022-11-16T19:29:40.135Z,99565.00
2022-11-16T19:32:06.648Z,99567.00
2022-11-16T19:34:33.598Z,99560.00
2022-11-16T19:37:00.435Z,99566.00
2022-11-16T19:39:27.068Z,99562.00
2022-11-16T19:41:53.616Z,99574.00
2022-11-16T19:44:20.164Z,99568.00
2022-11-16T19:46:46.740Z,99569.00
2022-11-16T19:49:19.955Z,99563.00
2022-11-16T19:51:47.121Z,99564.00
2022-11-16T19:54:14.785Z,99576.00
2022-11-16T19:56:42.006Z,99579.00
2022-11-16T19:59:08.580Z,99587.00
2022-11-16T20:01:35.453Z,99585.00
2022-11-16T20:04:06.008Z,99588.00
2022-11-16T20:06:35.303Z,99588.00
2022-11-16T20:11:43.792Z,99576.00
2022-11-16T20:14:11.763Z,99594.00
2022-11-16T20:16:40.403Z,99591.00
2022-11-16T20:19:08.342Z,99589.00
2022-11-16T20:21:39.837Z,99598.00
2022-11-16T20:24:08.914Z,99602.00
2022-11-16T20:26:36.873Z,99586.00
2022-11-16T20:29:03.667Z,99595.00
2022-11-16T20:31:31.915Z,99599.00
2022-11-16T20:33:59.892Z,99600.00
2022-11-16T20:36:28.326Z,99597.00
2022-11-16T20:38:56.064Z,99599.00
2022-11-16T20:41:24.922Z,99602.00
2022-11-16T20:43:53.268Z,99594.00
2022-11-16T20:46:22.551Z,99607.00
2022-11-16T20:48:49.741Z,99602.00
2022-11-16T20:51:17.858Z,99605.00
2022-11-16T20:53:45.151Z,99610.00
2022-11-16T20:56:12.570Z,99606.00
2022-11-16T20:58:39.796Z,99594.00
2022-11-16T21:01:08.995Z,99597.00
2022-11-16T21:03:36.164Z,99600.00
2022-11-16T21:06:03.292Z,99605.00
2022-11-16T21:08:30.046Z,99600.00
2022-11-16T21:10:57.203Z,99603.00
2022-11-16T21:13:42.379Z,99592.00
2022-11-16T21:16:11.751Z,99594.00
2022-11-16T21:18:39.438Z,99601.00
2022-11-16T21:21:08.033Z,99611.00
2022-11-16T21:23:35.998Z,99606.00
2022-11-16T21:26:35.557Z,99597.00
2022-11-16T21:29:02.143Z,99593.00
2022-11-16T21:31:31.630Z,99597.00
2022-11-16T21:34:00.567Z,99598.00
2022-11-16T21:36:28.509Z,99599.00
2022-11-16T21:38:55.553Z,99592.00
2022-11-16T21:41:23.153Z,99610.00
2022-11-16T21:43:49.782Z,99603.00
2022-11-16T21:46:18.362Z,99601.00
2022-11-16T21:48:45.078Z,99606.00
2022-11-16T21:51:16.941Z,99612.00
2022-11-16T21:53:43.667Z,99612.00
2022-11-16T21:56:18.504Z,99612.00
2022-11-16T21:58:45.515Z,99609.00
2022-11-16T22:01:12.913Z,99602.00
2022-11-16T22:03:39.811Z,99601.00
2022-11-16T22:06:26.009Z,99602.00
2022-11-16T22:08:52.796Z,99606.00
2022-11-16T22:11:21.974Z,99596.00
2022-11-16T22:13:49.345Z,99600.00
2022-11-16T22:16:19.730Z,99604.00
2022-11-16T22:18:46.296Z,99594.00
2022-11-16T22:21:12.885Z,99598.00
2022-11-16T22:23:39.792Z,99604.00
2022-11-16T22:26:09.404Z,99607.00
2022-11-16T22:28:36.650Z,99604.00
2022-11-16T22:31:14.362Z,99601.00
2022-11-16T22:33:41.319Z,99604.00
2022-11-16T22:36:11.821Z,99595.00
2022-11-16T22:38:38.360Z,99602.00
2022-11-16T22:41:05.388Z,99612.00
2022-11-16T22:43:32.726Z,99604.00
2022-11-16T22:46:00.867Z,99606.00
2022-11-16T22:48:38.704Z,99604.00
2022-11-16T22:51:15.033Z,99607.00
2022-11-16T22:53:41.583Z,99609.00
2022-11-16T22:56:09.440Z,99604.00
2022-11-16T22:58:37.160Z,99613.00
2022-11-16T23:01:04.835Z,99599.00
2022-11-16T23:03:31.653Z,99597.00
2022-11-16T23:05:58.471Z,99584.00
2022-11-16T23:08:25.301Z,99593.00
2022-11-16T23:11:25.813Z,99595.00
2022-11-16T23:14:11.938Z,99610.00
2022-11-16T23:16:39.591Z,99598.00
2022-11-16T23:19:25.159Z,99591.00
2022-11-16T23:22:10.525Z,99583.00
2022-11-16T23:24:55.597Z,99588.00
2022-11-16T23:27:31.315Z,99593.00
2022-11-16T23:29:58.828Z,99587.00
2022-11-16T23:32:25.549Z,99592.00
2022-11-16T23:34:52.085Z,99586.00
2022-11-16T23:37:18.625Z,99569.00
2022-11-16T23:39:45.134Z,99581.00
2022-11-16T23:42:31.900Z,99575.00
2022-11-16T23:44:58.389Z,99565.00
2022-11-16T23:47:25.199Z,99574.00
2022-11-16T23:50:16.336Z,99583.00
2022-11-16T23:52:42.948Z,99562.00
2022-11-16T23:55:09.562Z,99555.00
2022-11-16T23:57:36.122Z,99556.00
